Time;durP1;ratioP1;P1;durP2;ratioP2;P2;SDS_P1;SDS_P2;PMS_P1;PMS_P2;Temp;Humidity;BMP_temperature;BMP_pressure;BME280_temperature;BME280_humidity;BME280_pressure;Samples;Min_cycle;Max_cycle;Signal;HPM_P1;HPM_P2
2023/12/16 13:49:53;;;;;;;25.53;9.17;;;;;;;8.01;100.00;103707.88;5281568;27;20365;-70
2023/12/16 13:52:24;;;;;;;29.57;10.40;;;;;;;8.22;100.00;103699.94;5284555;28;20107;-72
2023/12/16 13:54:56;;;;;;;25.73;9.63;;;;;;;8.08;100.00;103714.81;5283411;28;20107;-71
2023/12/16 13:57:27;;;;;;;28.33;10.53;;;;;;;8.05;100.00;103714.78;5282594;28;20039;-72
2023/12/16 13:59:59;;;;;;;31.30;9.50;;;;;;;8.20;100.00;103709.53;5284010;28;20118;-73
2023/12/16 14:02:30;;;;;;;33.53;10.33;;;;;;;8.35;100.00;103712.97;5284815;28;20052;-71
2023/12/16 14:05:02;;;;;;;18.87;7.93;;;;;;;8.43;100.00;103719.00;5280647;28;20044;-72
2023/12/16 14:07:33;;;;;;;30.10;9.57;;;;;;;8.29;100.00;103703.41;5276727;28;20016;-72
2023/12/16 14:10:05;;;;;;;25.40;10.17;;;;;;;8.42;100.00;103721.63;5276350;28;20032;-72
2023/12/16 14:12:36;;;;;;;24.27;9.27;;;;;;;8.45;100.00;103722.50;5284105;28;20027;-77
2023/12/16 14:15:08;;;;;;;23.27;8.87;;;;;;;8.35;100.00;103718.19;5280103;28;20121;-73
2023/12/16 14:17:39;;;;;;;28.90;9.90;;;;;;;8.23;100.00;103701.72;5274921;28;20032;-74
2023/12/16 14:20:11;;;;;;;19.33;9.70;;;;;;;8.39;100.00;103719.94;5271242;28;20032;-71
2023/12/16 14:22:42;;;;;;;26.60;10.20;;;;;;;8.42;100.00;103716.41;5283201;28;20029;-74
2023/12/16 14:25:14;;;;;;;24.80;9.93;;;;;;;8.50;100.00;103713.78;5278062;28;20021;-75
2023/12/16 14:27:46;;;;;;;25.03;9.90;;;;;;;8.50;100.00;103711.16;5271790;28;20100;-70
2023/12/16 14:30:18;;;;;;;24.43;8.60;;;;;;;8.43;100.00;103698.13;5281182;28;20048;-75
2023/12/16 14:32:49;;;;;;;19.77;9.73;;;;;;;8.43;100.00;103705.97;5273190;28;20025;-75
2023/12/16 14:35:20;;;;;;;22.10;9.70;;;;;;;8.61;100.00;103717.22;5285577;28;20658;-74
2023/12/16 14:37:51;;;;;;;23.77;10.00;;;;;;;8.57;100.00;103710.31;5272747;28;20478;-71
2023/12/16 14:40:23;;;;;;;28.50;9.97;;;;;;;8.43;100.00;103705.13;5285833;28;20475;-75
2023/12/16 14:42:54;;;;;;;27.30;8.97;;;;;;;8.56;100.00;103716.38;5275830;28;20380;-73
2023/12/16 14:45:26;;;;;;;25.07;9.70;;;;;;;8.45;100.00;103709.44;5274875;28;20025;-72
2023/12/16 14:47:57;;;;;;;22.23;9.67;;;;;;;8.45;100.00;103709.44;5275651;28;20037;-73
2023/12/16 14:50:28;;;;;;;26.50;10.50;;;;;;;8.50;100.00;103714.63;5281623;28;20029;-74
2023/12/16 14:53:00;;;;;;;23.93;8.80;;;;;;;8.51;100.00;103707.66;5290586;28;20033;-73
2023/12/16 14:55:31;;;;;;;20.30;9.37;;;;;;;8.51;100.00;103702.44;5272369;28;20044;-72
2023/12/16 14:58:05;;;;;;;28.67;10.93;;;;;;;8.53;100.00;103695.47;5270943;28;20029;-68
2023/12/16 15:00:37;;;;;;;22.38;10.20;;;;;;;8.55;100.00;103696.34;5264748;28;20356;-72
2023/12/16 15:03:08;;;;;;;19.67;8.77;;;;;;;8.57;100.00;103702.47;5268293;28;20043;-75
2023/12/16 15:05:41;;;;;;;31.07;10.47;;;;;;;8.48;100.00;103693.75;5270201;28;20445;-75
2023/12/16 15:08:12;;;;;;;22.50;9.23;;;;;;;8.45;100.00;103691.16;5265134;28;20032;-74
2023/12/16 15:10:44;;;;;;;24.47;9.93;;;;;;;8.45;100.00;103690.28;5261629;28;20029;-74
2023/12/16 15:13:15;;;;;;;21.83;9.83;;;;;;;8.46;100.00;103687.69;5275073;28;20033;-71
2023/12/16 15:15:46;;;;;;;25.00;10.30;;;;;;;8.43;100.00;103674.63;5276128;28;20471;-73
2023/12/16 15:18:17;;;;;;;23.43;10.53;;;;;;;8.51;100.00;103692.00;5275571;28;20028;-72
2023/12/16 15:20:50;;;;;;;25.90;10.97;;;;;;;8.50;100.00;103691.13;5276941;28;20043;-72
2023/12/16 15:23:21;;;;;;;31.93;10.97;;;;;;;8.52;100.00;103691.16;5277379;28;20694;-70
2023/12/16 15:25:53;;;;;;;30.00;10.73;;;;;;;8.53;100.00;103685.91;5263136;28;20024;-71
2023/12/16 15:28:25;;;;;;;22.83;9.97;;;;;;;8.50;100.00;103685.91;5276679;28;20033;-72
2023/12/16 15:30:57;;;;;;;25.17;10.90;;;;;;;8.44;100.00;103672.88;5276515;28;20074;-72
2023/12/16 15:33:29;;;;;;;24.00;11.67;;;;;;;8.50;100.00;103687.66;5275826;28;20031;-72
2023/12/16 15:36:00;;;;;;;24.83;11.30;;;;;;;8.47;100.00;103681.56;5276768;28;20471;-72
2023/12/16 15:38:31;;;;;;;24.17;11.30;;;;;;;8.52;100.00;103684.16;5272194;28;20675;-72
2023/12/16 15:41:03;;;;;;;25.67;10.67;;;;;;;8.47;100.00;103681.56;5274921;28;20411;-72
2023/12/16 15:43:34;;;;;;;25.60;11.00;;;;;;;8.54;100.00;103689.38;5277224;28;20054;-72
2023/12/16 15:46:05;;;;;;;24.50;11.83;;;;;;;8.50;100.00;103687.66;5276122;28;20068;-72
2023/12/16 15:48:38;;;;;;;21.37;11.30;;;;;;;8.47;100.00;103686.78;5276321;28;20379;-73
2023/12/16 15:51:09;;;;;;;23.43;10.90;;;;;;;8.49;100.00;103673.72;5276450;28;20613;-72
2023/12/16 15:53:41;;;;;;;24.50;11.57;;;;;;;8.60;100.00;103671.09;5277059;28;20052;-71
2023/12/16 15:56:12;;;;;;;28.07;11.67;;;;;;;8.57;100.00;103671.97;5277118;28;20032;-71
2023/12/16 15:58:43;;;;;;;20.90;11.27;;;;;;;8.68;100.00;103684.97;5274137;28;20071;-71
2023/12/16 16:01:15;;;;;;;22.50;11.70;;;;;;;8.55;100.00;103675.44;5276269;28;20035;-72
2023/12/16 16:03:46;;;;;;;26.20;12.33;;;;;;;8.52;100.00;103683.31;5274881;28;20163;-72
2023/12/16 16:06:18;;;;;;;22.03;12.77;;;;;;;8.58;100.00;103689.41;5276656;28;20025;-71
2023/12/16 16:08:49;;;;;;;20.77;11.50;;;;;;;8.47;100.00;103681.56;5276127;28;20510;-73
2023/12/16 16:11:20;;;;;;;22.27;12.23;;;;;;;8.56;100.00;103679.81;5271216;28;20029;-72
2023/12/16 16:13:52;;;;;;;24.53;12.00;;;;;;;8.59;100.00;103692.84;5277983;28;20024;-73
2023/12/16 16:16:23;;;;;;;24.77;11.93;;;;;;;8.52;100.00;103684.16;5275925;28;20035;-71
2023/12/16 16:18:55;;;;;;;23.13;11.93;;;;;;;8.56;100.00;103701.59;5274129;28;20816;-72
2023/12/16 16:21:27;;;;;;;22.37;12.23;;;;;;;8.55;100.00;103704.19;5273746;28;20025;-72
2023/12/16 16:23:58;;;;;;;23.67;13.07;;;;;;;8.56;100.00;103719.00;5274080;28;20060;-77
2023/12/16 16:26:29;;;;;;;25.47;12.63;;;;;;;8.54;100.00;103703.31;5270831;28;20043;-73
2023/12/16 16:29:02;;;;;;;24.20;12.37;;;;;;;8.58;100.00;103719.88;5276513;28;20050;-72
2023/12/16 16:31:37;;;;;;;24.10;12.23;;;;;;;8.55;100.00;103709.41;5268186;28;20388;-75
2023/12/16 16:34:08;;;;;;;25.63;12.83;;;;;;;8.64;100.00;103719.81;5272466;28;20013;-74
2023/12/16 16:36:40;;;;;;;24.37;13.10;;;;;;;8.61;100.00;103725.06;5270305;28;20375;-72
2023/12/16 16:39:12;;;;;;;32.00;13.30;;;;;;;8.56;100.00;103711.16;5267774;28;20095;-74
2023/12/16 16:41:46;;;;;;;23.97;12.63;;;;;;;8.59;100.00;103704.19;5273381;28;20021;-73
2023/12/16 16:44:18;;;;;;;20.85;12.63;;;;;;;8.58;100.00;103704.19;5272155;28;20048;-73
2023/12/16 16:46:49;;;;;;;26.33;12.77;;;;;;;8.59;100.00;103712.03;5271974;28;20059;-71
2023/12/16 16:49:21;;;;;;;27.67;12.20;;;;;;;8.60;100.00;103728.56;5273978;28;20053;-70
2023/12/16 16:51:52;;;;;;;21.80;13.30;;;;;;;8.58;100.00;103718.13;5261889;28;20034;-73
2023/12/16 16:54:24;;;;;;;21.67;13.03;;;;;;;8.57;100.00;103710.31;5276054;28;20031;-74
2023/12/16 16:56:55;;;;;;;17.90;12.53;;;;;;;8.56;100.00;103712.03;5274875;28;20028;-74
2023/12/16 16:59:26;;;;;;;21.93;13.60;;;;;;;8.61;100.00;103721.59;5283490;28;20024;-70
2023/12/16 17:01:58;;;;;;;22.07;11.93;;;;;;;8.61;100.00;103719.84;5272758;28;20462;-75
2023/12/16 17:04:29;;;;;;;22.90;12.07;;;;;;;8.63;100.00;103705.03;5274553;28;20021;-72
2023/12/16 17:07:00;;;;;;;21.37;13.07;;;;;;;8.64;100.00;103711.97;5270977;28;20095;-74
2023/12/16 17:09:32;;;;;;;23.30;11.97;;;;;;;8.62;100.00;103698.09;5264661;28;20024;-71
2023/12/16 17:12:03;;;;;;;26.53;14.80;;;;;;;8.58;100.00;103678.94;5262165;28;20078;-73
2023/12/16 17:14:35;;;;;;;16.73;12.03;;;;;;;8.57;100.00;103681.56;5274369;28;20021;-72
2023/12/16 17:17:07;;;;;;;27.13;14.13;;;;;;;8.63;100.00;103689.34;5275645;28;20027;-72
2023/12/16 17:19:39;;;;;;;19.67;12.17;;;;;;;8.60;100.00;103689.38;5274449;28;20029;-73
2023/12/16 17:22:10;;;;;;;25.53;13.80;;;;;;;8.58;100.00;103693.75;5280716;28;20077;-71
2023/12/16 17:24:41;;;;;;;19.93;12.40;;;;;;;8.62;100.00;103703.31;5285468;28;20556;-72
2023/12/16 17:27:15;;;;;;;22.00;12.27;;;;;;;8.62;100.00;103705.03;5275406;28;20444;-72
2023/12/16 17:29:46;;;;;;;21.10;13.63;;;;;;;8.56;100.00;103692.88;5275711;28;20063;-71
2023/12/16 17:32:18;;;;;;;22.60;12.40;;;;;;;8.65;100.00;103703.28;5273613;28;20056;-71
2023/12/16 17:34:49;;;;;;;25.37;12.73;;;;;;;8.68;100.00;103711.09;5275024;28;20032;-72
2023/12/16 17:37:20;;;;;;;29.10;11.67;;;;;;;8.63;100.00;103712.00;5275110;28;20032;-72
2023/12/16 17:39:52;;;;;;;22.33;11.70;;;;;;;8.65;100.00;103703.28;5270674;28;20029;-70
2023/12/16 17:42:25;;;;;;;25.10;13.63;;;;;;;8.66;100.00;103697.19;5265671;28;20025;-72
2023/12/16 17:44:58;;;;;;;22.60;13.40;;;;;;;8.66;100.00;103678.88;5275786;28;20070;-72
2023/12/16 17:47:29;;;;;;;21.00;11.60;;;;;;;8.67;100.00;103674.53;5276123;28;20497;-73
2023/12/16 17:50:01;;;;;;;21.77;13.43;;;;;;;8.63;100.00;103680.66;5273731;28;20016;-70
2023/12/16 17:52:32;;;;;;;20.60;10.93;;;;;;;8.67;100.00;103688.47;5275122;28;20420;-74
2023/12/16 17:55:04;;;;;;;20.10;11.80;;;;;;;8.62;100.00;103695.47;5261225;28;20020;-71
2023/12/16 17:57:35;;;;;;;21.40;13.33;;;;;;;8.68;100.00;103705.88;5264537;28;20040;-69
2023/12/16 18:00:09;;;;;;;22.73;12.00;;;;;;;8.64;100.00;103698.91;5257964;28;20010;-70
2023/12/16 18:02:40;;;;;;;19.45;11.35;;;;;;;8.72;100.00;103711.97;5255858;28;20108;-74
2023/12/16 18:05:12;;;;;;;20.47;11.23;;;;;;;8.72;100.00;103709.34;5264143;28;20128;-72
2023/12/16 18:07:43;;;;;;;19.90;11.83;;;;;;;8.75;100.00;103716.28;5269136;28;20067;-75
2023/12/16 18:10:14;;;;;;;24.80;12.83;;;;;;;8.72;100.00;103701.50;5269279;28;20020;-73
2023/12/16 18:12:46;;;;;;;20.87;11.53;;;;;;;8.69;100.00;103696.31;5273578;28;20028;-73
2023/12/16 18:15:17;;;;;;;17.20;11.77;;;;;;;8.73;100.00;103702.38;5274102;28;20020;-74
2023/12/16 18:17:49;;;;;;;21.40;11.40;;;;;;;8.78;100.00;103696.22;5272800;28;20039;-74
2023/12/16 18:20:26;;;;;;;19.60;11.37;;;;;;;8.79;100.00;103691.88;5274273;28;20103;-70
2023/12/16 18:22:58;;;;;;;24.13;12.87;;;;;;;8.76;100.00;103697.97;5274584;28;20029;-74
2023/12/16 18:25:29;;;;;;;20.73;12.37;;;;;;;8.76;100.00;103711.03;5274527;28;20024;-75
2023/12/16 18:28:01;;;;;;;21.67;11.70;;;;;;;8.74;100.00;103704.97;5273544;28;20024;-76
2023/12/16 18:30:32;;;;;;;20.83;12.97;;;;;;;8.76;100.00;103715.44;5271255;28;20025;-72
2023/12/16 18:33:05;;;;;;;13.13;10.40;;;;;;;8.75;100.00;103706.72;5257367;28;20048;-71
2023/12/16 18:35:38;;;;;;;20.03;12.90;;;;;;;8.81;100.00;103705.81;5255678;28;20056;-71
2023/12/16 18:38:10;;;;;;;20.92;11.65;;;;;;;8.80;100.00;103702.31;5265758;28;20013;-70
2023/12/16 18:40:41;;;;;;;16.57;11.27;;;;;;;8.78;100.00;103711.06;5275709;28;20444;-71
2023/12/16 18:43:13;;;;;;;20.63;11.87;;;;;;;8.80;100.00;103709.28;5273219;28;20494;-72
2023/12/16 18:45:45;;;;;;;15.10;12.10;;;;;;;8.77;100.00;103709.31;5265616;28;20175;-72
2023/12/16 18:48:16;;;;;;;20.73;12.47;;;;;;;8.81;100.00;103716.25;5268262;28;20047;-73
2023/12/16 18:50:47;;;;;;;24.33;13.43;;;;;;;8.77;100.00;103720.63;5263874;28;20033;-72
2023/12/16 18:53:19;;;;;;;29.27;12.57;;;;;;;8.79;100.00;103712.78;5258373;28;20464;-72
2023/12/16 18:55:50;;;;;;;19.17;11.77;;;;;;;8.83;100.00;103704.06;5259116;28;20033;-73
2023/12/16 18:58:21;;;;;;;25.60;13.50;;;;;;;8.89;100.00;103703.13;5265028;28;20036;-77
2023/12/16 19:00:53;;;;;;;22.07;12.50;;;;;;;8.94;100.00;103699.63;5260117;28;20032;-70
2023/12/16 19:03:24;;;;;;;20.33;13.93;;;;;;;8.83;100.00;103706.69;5196104;28;20981;-70
2023/12/16 19:05:55;;;;;;;21.43;13.47;;;;;;;8.76;100.00;103703.19;5265018;28;20054;-71
2023/12/16 19:08:26;;;;;;;26.77;13.60;;;;;;;8.77;100.00;103712.78;5269675;28;20033;-71
2023/12/16 19:10:59;;;;;;;21.07;13.07;;;;;;;8.87;100.00;103700.53;5267787;28;20044;-69
2023/12/16 19:13:31;;;;;;;23.30;14.33;;;;;;;8.80;100.00;103698.81;5268324;28;20028;-71
2023/12/16 19:16:02;;;;;;;23.20;13.67;;;;;;;8.79;100.00;103708.44;5269667;28;20596;-70
2023/12/16 19:18:33;;;;;;;26.33;14.10;;;;;;;8.79;100.00;103702.34;5268411;28;20446;-69
2023/12/16 19:21:05;;;;;;;20.73;14.57;;;;;;;8.77;100.00;103704.06;5267417;28;20039;-73
2023/12/16 19:23:36;;;;;;;17.77;12.73;;;;;;;8.87;100.00;103721.44;5267372;28;20151;-73
2023/12/16 19:26:08;;;;;;;27.23;14.53;;;;;;;8.83;100.00;103719.75;5270242;28;20209;-71
2023/12/16 19:28:39;;;;;;;18.93;14.17;;;;;;;8.69;100.00;103706.75;5269277;28;20051;-69
2023/12/16 19:31:10;;;;;;;17.57;13.83;;;;;;;8.71;100.00;103715.44;5269236;28;20044;-73
2023/12/16 19:33:41;;;;;;;20.97;13.47;;;;;;;8.78;100.00;103711.91;5269025;28;20040;-69
2023/12/16 19:36:13;;;;;;;22.57;14.33;;;;;;;8.72;100.00;103706.72;5267165;28;20518;-72
2023/12/16 19:38:44;;;;;;;21.40;14.63;;;;;;;8.78;100.00;103711.06;5270776;28;20039;-70
2023/12/16 19:41:16;;;;;;;21.27;14.77;;;;;;;8.83;100.00;103712.75;5268871;28;20078;-70
2023/12/16 19:43:47;;;;;;;20.37;14.83;;;;;;;8.75;100.00;103711.06;5267153;28;20403;-70
2023/12/16 19:46:19;;;;;;;21.93;16.27;;;;;;;8.75;100.00;103726.72;5270126;28;20040;-69
2023/12/16 19:48:50;;;;;;;23.30;15.80;;;;;;;8.74;100.00;103735.47;5266718;28;20170;-70
2023/12/16 19:51:21;;;;;;;24.63;15.97;;;;;;;8.90;100.00;103731.88;5269185;28;20035;-71
2023/12/16 19:53:52;;;;;;;24.53;15.43;;;;;;;8.76;100.00;103728.50;5270447;28;20021;-73
2023/12/16 19:56:24;;;;;;;22.23;16.20;;;;;;;8.77;100.00;103725.00;5268097;28;20037;-70
2023/12/16 19:58:56;;;;;;;21.13;14.60;;;;;;;8.79;100.00;103729.34;5265892;28;20039;-71
2023/12/16 20:01:27;;;;;;;26.43;15.00;;;;;;;8.79;100.00;103729.34;5268312;28;20056;-73
2023/12/16 20:03:58;;;;;;;21.37;16.03;;;;;;;8.78;100.00;103734.59;5267689;28;20186;-71
2023/12/16 20:06:29;;;;;;;24.27;17.13;;;;;;;8.83;100.00;103740.66;5266622;28;20051;-69
2023/12/16 20:09:01;;;;;;;24.87;16.10;;;;;;;8.80;100.00;103743.25;5269322;28;20295;-70
2023/12/16 20:11:32;;;;;;;32.07;17.30;;;;;;;8.90;100.00;103744.09;5266223;28;20059;-70
2023/12/16 20:14:03;;;;;;;21.73;16.53;;;;;;;8.93;100.00;103762.38;5270857;28;20410;-73
2023/12/16 20:16:35;;;;;;;22.43;16.50;;;;;;;8.80;100.00;103767.66;5268082;28;20723;-72
2023/12/16 20:19:06;;;;;;;26.77;18.33;;;;;;;8.79;100.00;103768.53;5266440;28;20108;-73
2023/12/16 20:21:38;;;;;;;22.33;16.27;;;;;;;8.97;100.00;103766.72;5268455;28;20094;-70
2023/12/16 20:24:09;;;;;;;24.17;17.27;;;;;;;8.84;100.00;103773.72;5267926;28;20060;-71
2023/12/16 20:26:40;;;;;;;24.70;15.87;;;;;;;8.75;100.00;103763.31;5269194;28;20025;-71
2023/12/16 20:29:12;;;;;;;22.40;16.70;;;;;;;8.71;100.00;103760.72;5268630;28;20032;-70
2023/12/16 20:31:43;;;;;;;25.53;17.17;;;;;;;8.74;100.00;103765.09;5269065;28;20036;-70
2023/12/16 20:34:15;;;;;;;25.73;16.50;;;;;;;8.71;100.00;103752.88;5265742;28;20475;-70
2023/12/16 20:36:47;;;;;;;24.67;17.33;;;;;;;8.70;100.00;103755.50;5265708;28;20029;-70
2023/12/16 20:42:10;;;;;;;26.57;17.73;;;;;;;8.79;100.00;103763.31;5269169;28;20044;-70
2023/12/16 20:44:41;;;;;;;22.37;18.00;;;;;;;8.74;100.00;103761.59;5269335;28;20384;-68
2023/12/16 20:47:13;;;;;;;23.83;17.07;;;;;;;8.75;100.00;103764.19;5266819;28;20021;-69
2023/12/16 20:49:44;;;;;;;25.87;18.17;;;;;;;8.73;100.00;103767.72;5267499;28;20056;-69
2023/12/16 20:52:15;;;;;;;28.03;17.17;;;;;;;8.74;100.00;103765.09;5267727;28;20573;-70
2023/12/16 20:54:46;;;;;;;25.43;18.37;;;;;;;8.74;100.00;103757.25;5267465;28;20032;-68
2023/12/16 20:57:18;;;;;;;27.50;19.27;;;;;;;8.71;100.00;103750.28;5264709;28;20028;-70
2023/12/16 20:59:49;;;;;;;27.53;18.97;;;;;;;8.74;100.00;103745.91;5269491;28;20124;-71
2023/12/16 21:02:20;;;;;;;27.13;19.87;;;;;;;8.77;100.00;103738.06;5266765;28;20025;-77
2023/12/16 21:04:51;;;;;;;30.67;19.37;;;;;;;8.77;100.00;103735.44;5266708;28;20028;-71
2023/12/16 21:07:23;;;;;;;25.63;17.80;;;;;;;8.93;100.00;103734.50;5273311;28;20036;-69
2023/12/16 21:09:54;;;;;;;29.27;19.17;;;;;;;8.90;100.00;103724.03;5270806;28;20032;-69
2023/12/16 21:12:25;;;;;;;25.47;18.87;;;;;;;8.78;100.00;103738.03;5256565;28;20057;-70
2023/12/16 21:14:58;;;;;;;24.40;18.23;;;;;;;8.74;100.00;103740.69;5276069;28;20029;-70
2023/12/16 21:17:29;;;;;;;25.17;18.53;;;;;;;8.78;100.00;103739.81;5273692;28;20178;-70
2023/12/16 21:20:00;;;;;;;26.57;19.77;;;;;;;8.70;100.00;103738.09;5275758;28;20060;-70
2023/12/16 21:22:32;;;;;;;27.33;19.57;;;;;;;8.70;100.00;103748.56;5271882;28;20028;-71
2023/12/16 21:25:04;;;;;;;26.30;19.37;;;;;;;8.96;100.00;103741.44;5263837;28;20035;-71
2023/12/16 21:27:36;;;;;;;30.50;20.27;;;;;;;8.89;100.00;103745.81;5274790;28;20039;-70
2023/12/16 21:30:09;;;;;;;26.43;20.70;;;;;;;8.83;100.00;103756.34;5274841;28;20024;-74
2023/12/16 21:32:41;;;;;;;26.02;19.38;;;;;;;8.98;100.00;103757.97;5273143;28;20032;-73
2023/12/16 21:35:13;;;;;;;27.63;19.40;;;;;;;8.94;100.00;103756.25;5274553;28;20038;-75
2023/12/16 21:37:44;;;;;;;27.83;21.23;;;;;;;8.95;100.00;103747.53;5275690;28;20021;-75
2023/12/16 21:40:15;;;;;;;30.07;21.90;;;;;;;8.92;100.00;103743.19;5275325;28;20528;-74
2023/12/16 21:42:47;;;;;;;26.73;21.27;;;;;;;8.88;100.00;103748.44;5274922;28;20036;-71
2023/12/16 21:45:18;;;;;;;29.43;22.23;;;;;;;8.89;100.00;103750.19;5273590;28;20102;-73
2023/12/16 21:47:50;;;;;;;29.93;21.63;;;;;;;8.85;100.00;103733.63;5274189;28;20041;-73
2023/12/16 21:50:21;;;;;;;32.23;21.93;;;;;;;8.84;100.00;103742.38;5254707;28;20094;-73
2023/12/16 21:52:52;;;;;;;31.13;22.33;;;;;;;8.95;100.00;103756.22;5261819;28;20112;-72
2023/12/16 21:55:23;;;;;;;26.97;22.43;;;;;;;8.91;100.00;103746.69;5273317;28;20028;-75
2023/12/16 21:57:55;;;;;;;25.77;21.40;;;;;;;8.89;100.00;103734.50;5275238;28;20025;-71
2023/12/16 22:00:27;;;;;;;30.17;23.63;;;;;;;8.88;100.00;103724.94;5259413;28;20031;-70
2023/12/16 22:02:58;;;;;;;33.17;24.20;;;;;;;8.88;100.00;103735.38;5259568;28;20025;-72
2023/12/16 22:05:29;;;;;;;28.17;22.93;;;;;;;8.86;100.00;103724.94;5265782;28;20108;-72
2023/12/16 22:08:00;;;;;;;33.37;24.30;;;;;;;8.87;100.00;103721.44;5270669;28;20054;-70
2023/12/16 22:10:32;;;;;;;35.30;24.83;;;;;;;8.87;100.00;103724.06;5268349;28;20485;-72
2023/12/16 22:13:03;;;;;;;30.63;24.23;;;;;;;8.93;100.00;103720.53;5266312;28;20036;-70
2023/12/16 22:15:35;;;;;;;32.10;24.13;;;;;;;8.90;100.00;103731.88;5279268;28;20524;-69
2023/12/16 22:18:08;;;;;;;39.33;25.97;;;;;;;8.92;100.00;103734.50;5277794;28;20115;-70
2023/12/16 22:20:39;;;;;;;34.90;24.97;;;;;;;8.92;100.00;103731.88;5279313;28;20028;-72
2023/12/16 22:23:10;;;;;;;33.57;24.93;;;;;;;8.92;100.00;103719.66;5278454;28;20025;-72
2023/12/16 22:25:42;;;;;;;36.03;26.30;;;;;;;8.97;100.00;103713.56;5279109;28;20037;-73
2023/12/16 22:28:13;;;;;;;32.37;25.67;;;;;;;8.97;100.00;103724.00;5277878;28;20582;-72
2023/12/16 22:30:44;;;;;;;35.70;27.60;;;;;;;8.96;100.00;103725.75;5278928;28;20033;-74
2023/12/16 22:33:16;;;;;;;32.33;27.07;;;;;;;9.00;100.00;103734.44;5277802;28;20027;-70
2023/12/16 22:35:47;;;;;;;45.90;25.57;;;;;;;8.94;100.00;103733.59;5278855;28;20025;-70
